sensor_id;sensor_type;location;lat;lon;timestamp;P1;durP1;ratioP1;P2;durP2;ratioP2
56537;SDS011;42435;53.292;6.000;2023-04-03T00:01:56;6.07;;;1.35;;
56537;SDS011;42435;53.292;6.000;2023-04-03T00:04:22;4.30;;;1.17;;
56537;SDS011;42435;53.292;6.000;2023-04-03T00:06:47;3.20;;;1.02;;
56537;SDS011;42435;53.292;6.000;2023-04-03T00:09:13;4.30;;;1.27;;
56537;SDS011;42435;53.292;6.000;2023-04-03T00:11:38;5.82;;;2.05;;
56537;SDS011;42435;53.292;6.000;2023-04-03T00:14:04;2.33;;;0.82;;
56537;SDS011;42435;53.292;6.000;2023-04-03T00:16:30;1.50;;;1.35;;
56537;SDS011;42435;53.292;6.000;2023-04-03T00:18:59;1.33;;;0.85;;
56537;SDS011;42435;53.292;6.000;2023-04-03T00:21:26;2.60;;;1.10;;
56537;SDS011;42435;53.292;6.000;2023-04-03T00:23:52;2.22;;;1.02;;
56537;SDS011;42435;53.292;6.000;2023-04-03T00:26:17;1.95;;;0.95;;
56537;SDS011;42435;53.292;6.000;2023-04-03T00:28:43;2.67;;;0.95;;
56537;SDS011;42435;53.292;6.000;2023-04-03T00:31:08;1.60;;;0.75;;
56537;SDS011;42435;53.292;6.000;2023-04-03T00:33:35;4.30;;;1.10;;
56537;SDS011;42435;53.292;6.000;2023-04-03T00:36:05;2.65;;;1.02;;
56537;SDS011;42435;53.292;6.000;2023-04-03T00:38:33;1.65;;;0.80;;
56537;SDS011;42435;53.292;6.000;2023-04-03T00:40:59;4.03;;;0.82;;
56537;SDS011;42435;53.292;6.000;2023-04-03T00:43:25;1.98;;;0.85;;
56537;SDS011;42435;53.292;6.000;2023-04-03T00:45:55;3.17;;;0.80;;
56537;SDS011;42435;53.292;6.000;2023-04-03T00:48:26;2.10;;;0.90;;
56537;SDS011;42435;53.292;6.000;2023-04-03T00:50:58;3.72;;;1.02;;
56537;SDS011;42435;53.292;6.000;2023-04-03T00:53:30;3.17;;;1.00;;
56537;SDS011;42435;53.292;6.000;2023-04-03T00:55:59;2.47;;;1.00;;
56537;SDS011;42435;53.292;6.000;2023-04-03T00:58:28;3.88;;;1.13;;
56537;SDS011;42435;53.292;6.000;2023-04-03T01:00:59;4.15;;;1.10;;
56537;SDS011;42435;53.292;6.000;2023-04-03T01:03:31;1.85;;;1.10;;
56537;SDS011;42435;53.292;6.000;2023-04-03T01:05:57;3.22;;;1.05;;
56537;SDS011;42435;53.292;6.000;2023-04-03T01:08:23;2.97;;;0.80;;
56537;SDS011;42435;53.292;6.000;2023-04-03T01:10:49;3.20;;;1.13;;
56537;SDS011;42435;53.292;6.000;2023-04-03T01:13:25;3.03;;;0.80;;
56537;SDS011;42435;53.292;6.000;2023-04-03T01:15:53;2.67;;;1.13;;
56537;SDS011;42435;53.292;6.000;2023-04-03T01:18:19;2.38;;;0.88;;
56537;SDS011;42435;53.292;6.000;2023-04-03T01:23:53;3.00;;;1.00;;
56537;SDS011;42435;53.292;6.000;2023-04-03T01:26:20;2.30;;;1.08;;
56537;SDS011;42435;53.292;6.000;2023-04-03T01:28:53;4.10;;;1.80;;
56537;SDS011;42435;53.292;6.000;2023-04-03T01:31:23;5.22;;;1.05;;
56537;SDS011;42435;53.292;6.000;2023-04-03T01:33:52;4.70;;;1.17;;
56537;SDS011;42435;53.292;6.000;2023-04-03T01:36:19;2.05;;;0.85;;
56537;SDS011;42435;53.292;6.000;2023-04-03T01:38:50;1.42;;;0.82;;
56537;SDS011;42435;53.292;6.000;2023-04-03T01:41:17;4.32;;;1.45;;
56537;SDS011;42435;53.292;6.000;2023-04-03T01:43:43;3.15;;;1.75;;
56537;SDS011;42435;53.292;6.000;2023-04-03T01:46:11;4.28;;;1.15;;
56537;SDS011;42435;53.292;6.000;2023-04-03T01:48:37;4.05;;;0.98;;
56537;SDS011;42435;53.292;6.000;2023-04-03T01:51:03;4.55;;;1.15;;
56537;SDS011;42435;53.292;6.000;2023-04-03T01:53:32;3.08;;;1.10;;
56537;SDS011;42435;53.292;6.000;2023-04-03T01:55:57;3.95;;;1.27;;
56537;SDS011;42435;53.292;6.000;2023-04-03T01:58:23;1.67;;;1.08;;
56537;SDS011;42435;53.292;6.000;2023-04-03T02:00:48;3.38;;;1.23;;
56537;SDS011;42435;53.292;6.000;2023-04-03T02:03:14;2.55;;;1.02;;
56537;SDS011;42435;53.292;6.000;2023-04-03T02:05:40;3.47;;;1.20;;
56537;SDS011;42435;53.292;6.000;2023-04-03T02:08:06;2.03;;;1.05;;
56537;SDS011;42435;53.292;6.000;2023-04-03T02:10:31;3.53;;;1.13;;
56537;SDS011;42435;53.292;6.000;2023-04-03T02:12:57;3.33;;;1.10;;
56537;SDS011;42435;53.292;6.000;2023-04-03T02:15:23;3.58;;;1.25;;
56537;SDS011;42435;53.292;6.000;2023-04-03T02:17:48;2.30;;;0.77;;
56537;SDS011;42435;53.292;6.000;2023-04-03T02:20:14;4.13;;;1.20;;
56537;SDS011;42435;53.292;6.000;2023-04-03T02:22:40;2.88;;;1.00;;
56537;SDS011;42435;53.292;6.000;2023-04-03T02:25:06;4.20;;;1.35;;
56537;SDS011;42435;53.292;6.000;2023-04-03T02:27:31;2.88;;;1.10;;
56537;SDS011;42435;53.292;6.000;2023-04-03T02:29:57;2.42;;;1.13;;
56537;SDS011;42435;53.292;6.000;2023-04-03T02:32:23;3.40;;;1.25;;
56537;SDS011;42435;53.292;6.000;2023-04-03T02:34:51;2.92;;;1.42;;
56537;SDS011;42435;53.292;6.000;2023-04-03T02:37:17;2.42;;;1.17;;
56537;SDS011;42435;53.292;6.000;2023-04-03T02:39:42;2.13;;;1.13;;
56537;SDS011;42435;53.292;6.000;2023-04-03T02:42:08;3.20;;;1.30;;
56537;SDS011;42435;53.292;6.000;2023-04-03T02:44:34;6.00;;;1.88;;
56537;SDS011;42435;53.292;6.000;2023-04-03T02:47:00;3.83;;;1.30;;
56537;SDS011;42435;53.292;6.000;2023-04-03T02:49:26;4.00;;;1.67;;
56537;SDS011;42435;53.292;6.000;2023-04-03T02:51:51;2.63;;;1.05;;
56537;SDS011;42435;53.292;6.000;2023-04-03T02:54:17;3.53;;;1.15;;
56537;SDS011;42435;53.292;6.000;2023-04-03T02:56:43;2.75;;;1.38;;
56537;SDS011;42435;53.292;6.000;2023-04-03T02:59:08;4.88;;;1.85;;
56537;SDS011;42435;53.292;6.000;2023-04-03T03:01:34;4.68;;;1.42;;
56537;SDS011;42435;53.292;6.000;2023-04-03T03:04:01;6.10;;;2.85;;
56537;SDS011;42435;53.292;6.000;2023-04-03T03:06:27;2.50;;;1.50;;
56537;SDS011;42435;53.292;6.000;2023-04-03T03:08:52;4.68;;;1.33;;
56537;SDS011;42435;53.292;6.000;2023-04-03T03:11:18;3.53;;;1.38;;
56537;SDS011;42435;53.292;6.000;2023-04-03T03:13:44;3.78;;;1.20;;
56537;SDS011;42435;53.292;6.000;2023-04-03T03:16:13;5.45;;;1.52;;
56537;SDS011;42435;53.292;6.000;2023-04-03T03:18:39;4.00;;;1.20;;
56537;SDS011;42435;53.292;6.000;2023-04-03T03:21:07;3.88;;;1.60;;
56537;SDS011;42435;53.292;6.000;2023-04-03T03:23:35;6.22;;;1.80;;
56537;SDS011;42435;53.292;6.000;2023-04-03T03:26:02;3.03;;;1.50;;
56537;SDS011;42435;53.292;6.000;2023-04-03T03:28:29;2.55;;;1.40;;
56537;SDS011;42435;53.292;6.000;2023-04-03T03:30:58;5.85;;;1.25;;
56537;SDS011;42435;53.292;6.000;2023-04-03T03:33:25;4.22;;;1.42;;
56537;SDS011;42435;53.292;6.000;2023-04-03T03:35:51;7.72;;;1.95;;
56537;SDS011;42435;53.292;6.000;2023-04-03T03:38:18;6.05;;;1.90;;
56537;SDS011;42435;53.292;6.000;2023-04-03T03:40:44;4.30;;;1.52;;
56537;SDS011;42435;53.292;6.000;2023-04-03T03:43:10;3.63;;;1.80;;
56537;SDS011;42435;53.292;6.000;2023-04-03T03:45:35;4.53;;;1.65;;
56537;SDS011;42435;53.292;6.000;2023-04-03T03:48:04;4.97;;;1.63;;
56537;SDS011;42435;53.292;6.000;2023-04-03T03:50:30;5.05;;;1.50;;
56537;SDS011;42435;53.292;6.000;2023-04-03T03:52:56;4.43;;;1.60;;
56537;SDS011;42435;53.292;6.000;2023-04-03T03:55:22;7.40;;;1.52;;
56537;SDS011;42435;53.292;6.000;2023-04-03T03:57:47;6.93;;;1.65;;
56537;SDS011;42435;53.292;6.000;2023-04-03T04:00:13;7.82;;;1.80;;
56537;SDS011;42435;53.292;6.000;2023-04-03T04:02:39;4.82;;;1.52;;
56537;SDS011;42435;53.292;6.000;2023-04-03T04:05:05;3.67;;;1.58;;
56537;SDS011;42435;53.292;6.000;2023-04-03T04:07:31;7.55;;;2.40;;
56537;SDS011;42435;53.292;6.000;2023-04-03T04:09:57;4.07;;;1.60;;
56537;SDS011;42435;53.292;6.000;2023-04-03T04:12:23;6.03;;;2.00;;
56537;SDS011;42435;53.292;6.000;2023-04-03T04:14:48;7.03;;;2.00;;
56537;SDS011;42435;53.292;6.000;2023-04-03T04:17:14;3.53;;;1.45;;
56537;SDS011;42435;53.292;6.000;2023-04-03T04:19:39;9.52;;;2.42;;
56537;SDS011;42435;53.292;6.000;2023-04-03T04:22:05;3.90;;;2.10;;
56537;SDS011;42435;53.292;6.000;2023-04-03T04:24:31;3.00;;;1.60;;
56537;SDS011;42435;53.292;6.000;2023-04-03T04:26:56;6.78;;;1.70;;
56537;SDS011;42435;53.292;6.000;2023-04-03T04:29:22;8.25;;;2.00;;
56537;SDS011;42435;53.292;6.000;2023-04-03T04:31:48;6.93;;;2.10;;
56537;SDS011;42435;53.292;6.000;2023-04-03T04:34:19;5.97;;;1.77;;
56537;SDS011;42435;53.292;6.000;2023-04-03T04:36:46;5.07;;;1.90;;
56537;SDS011;42435;53.292;6.000;2023-04-03T04:39:14;4.88;;;1.60;;
56537;SDS011;42435;53.292;6.000;2023-04-03T04:41:39;4.88;;;2.25;;
56537;SDS011;42435;53.292;6.000;2023-04-03T04:44:05;5.88;;;2.40;;
56537;SDS011;42435;53.292;6.000;2023-04-03T04:46:31;8.20;;;2.50;;
56537;SDS011;42435;53.292;6.000;2023-04-03T04:48:57;6.57;;;2.75;;
56537;SDS011;42435;53.292;6.000;2023-04-03T04:51:22;5.72;;;2.45;;
56537;SDS011;42435;53.292;6.000;2023-04-03T04:53:48;7.97;;;2.60;;
56537;SDS011;42435;53.292;6.000;2023-04-03T04:56:13;7.13;;;2.58;;
56537;SDS011;42435;53.292;6.000;2023-04-03T04:58:39;5.07;;;1.95;;
56537;SDS011;42435;53.292;6.000;2023-04-03T05:01:06;5.25;;;2.30;;
56537;SDS011;42435;53.292;6.000;2023-04-03T05:03:33;9.00;;;2.50;;
56537;SDS011;42435;53.292;6.000;2023-04-03T05:05:59;5.63;;;2.42;;
56537;SDS011;42435;53.292;6.000;2023-04-03T05:08:25;7.50;;;2.30;;
56537;SDS011;42435;53.292;6.000;2023-04-03T05:10:51;6.05;;;2.30;;
56537;SDS011;42435;53.292;6.000;2023-04-03T05:13:19;7.70;;;2.70;;
56537;SDS011;42435;53.292;6.000;2023-04-03T05:15:45;6.25;;;2.50;;
56537;SDS011;42435;53.292;6.000;2023-04-03T05:18:11;6.63;;;1.98;;
56537;SDS011;42435;53.292;6.000;2023-04-03T05:20:37;9.80;;;2.17;;
56537;SDS011;42435;53.292;6.000;2023-04-03T05:23:06;6.82;;;2.00;;
56537;SDS011;42435;53.292;6.000;2023-04-03T05:25:32;3.75;;;2.00;;
56537;SDS011;42435;53.292;6.000;2023-04-03T05:27:57;5.78;;;2.33;;
56537;SDS011;42435;53.292;6.000;2023-04-03T05:30:23;7.55;;;2.40;;
56537;SDS011;42435;53.292;6.000;2023-04-03T05:32:49;8.32;;;2.60;;
56537;SDS011;42435;53.292;6.000;2023-04-03T05:35:15;6.97;;;2.63;;
56537;SDS011;42435;53.292;6.000;2023-04-03T05:37:40;5.60;;;2.22;;
56537;SDS011;42435;53.292;6.000;2023-04-03T05:40:06;6.30;;;2.60;;
56537;SDS011;42435;53.292;6.000;2023-04-03T05:42:33;7.25;;;2.40;;
56537;SDS011;42435;53.292;6.000;2023-04-03T05:45:01;3.58;;;2.33;;
56537;SDS011;42435;53.292;6.000;2023-04-03T05:47:27;5.18;;;2.50;;
56537;SDS011;42435;53.292;6.000;2023-04-03T05:49:53;4.68;;;2.25;;
56537;SDS011;42435;53.292;6.000;2023-04-03T05:54:54;8.15;;;2.60;;
56537;SDS011;42435;53.292;6.000;2023-04-03T05:57:20;7.00;;;3.60;;
56537;SDS011;42435;53.292;6.000;2023-04-03T05:59:46;4.80;;;2.42;;
56537;SDS011;42435;53.292;6.000;2023-04-03T06:02:13;5.88;;;2.33;;
56537;SDS011;42435;53.292;6.000;2023-04-03T06:04:44;6.80;;;2.78;;
56537;SDS011;42435;53.292;6.000;2023-04-03T06:07:14;5.88;;;2.70;;
56537;SDS011;42435;53.292;6.000;2023-04-03T06:09:42;6.05;;;2.58;;
56537;SDS011;42435;53.292;6.000;2023-04-03T06:12:08;9.32;;;2.80;;
56537;SDS011;42435;53.292;6.000;2023-04-03T06:14:37;5.90;;;2.60;;
56537;SDS011;42435;53.292;6.000;2023-04-03T06:17:03;6.28;;;2.80;;
56537;SDS011;42435;53.292;6.000;2023-04-03T06:19:29;8.45;;;3.20;;
56537;SDS011;42435;53.292;6.000;2023-04-03T06:21:55;8.18;;;3.08;;
56537;SDS011;42435;53.292;6.000;2023-04-03T06:24:21;6.03;;;2.45;;
56537;SDS011;42435;53.292;6.000;2023-04-03T06:26:50;9.98;;;3.15;;
56537;SDS011;42435;53.292;6.000;2023-04-03T06:29:17;8.23;;;3.60;;
56537;SDS011;42435;53.292;6.000;2023-04-03T06:31:46;10.45;;;3.85;;
56537;SDS011;42435;53.292;6.000;2023-04-03T06:34:12;9.68;;;3.58;;
56537;SDS011;42435;53.292;6.000;2023-04-03T06:36:38;8.98;;;3.45;;
56537;SDS011;42435;53.292;6.000;2023-04-03T06:39:05;6.47;;;2.95;;
56537;SDS011;42435;53.292;6.000;2023-04-03T06:41:31;6.32;;;2.70;;
56537;SDS011;42435;53.292;6.000;2023-04-03T06:43:57;6.85;;;2.80;;
56537;SDS011;42435;53.292;6.000;2023-04-03T06:46:24;6.25;;;3.08;;
56537;SDS011;42435;53.292;6.000;2023-04-03T06:48:51;8.75;;;3.30;;
56537;SDS011;42435;53.292;6.000;2023-04-03T06:51:19;5.63;;;2.60;;
56537;SDS011;42435;53.292;6.000;2023-04-03T06:53:48;5.70;;;2.78;;
56537;SDS011;42435;53.292;6.000;2023-04-03T06:56:27;6.88;;;3.08;;
56537;SDS011;42435;53.292;6.000;2023-04-03T06:58:53;8.48;;;2.60;;
56537;SDS011;42435;53.292;6.000;2023-04-03T07:01:26;6.85;;;2.40;;
56537;SDS011;42435;53.292;6.000;2023-04-03T07:03:53;8.35;;;3.08;;
56537;SDS011;42435;53.292;6.000;2023-04-03T07:06:19;6.03;;;3.20;;
56537;SDS011;42435;53.292;6.000;2023-04-03T07:08:45;9.35;;;3.05;;
56537;SDS011;42435;53.292;6.000;2023-04-03T07:11:13;8.80;;;3.20;;
56537;SDS011;42435;53.292;6.000;2023-04-03T07:13:41;7.32;;;2.78;;
56537;SDS011;42435;53.292;6.000;2023-04-03T07:16:07;5.53;;;2.40;;
56537;SDS011;42435;53.292;6.000;2023-04-03T07:18:33;4.85;;;2.25;;
56537;SDS011;42435;53.292;6.000;2023-04-03T07:20:59;5.70;;;2.45;;
56537;SDS011;42435;53.292;6.000;2023-04-03T07:23:25;5.30;;;2.40;;
56537;SDS011;42435;53.292;6.000;2023-04-03T07:25:51;5.63;;;2.10;;
56537;SDS011;42435;53.292;6.000;2023-04-03T07:28:18;5.65;;;2.83;;
56537;SDS011;42435;53.292;6.000;2023-04-03T07:30:46;6.80;;;1.90;;
56537;SDS011;42435;53.292;6.000;2023-04-03T07:33:21;6.03;;;2.30;;
56537;SDS011;42435;53.292;6.000;2023-04-03T07:35:47;3.70;;;1.77;;
56537;SDS011;42435;53.292;6.000;2023-04-03T07:38:13;7.78;;;2.47;;
56537;SDS011;42435;53.292;6.000;2023-04-03T07:40:39;6.93;;;2.67;;
56537;SDS011;42435;53.292;6.000;2023-04-03T07:43:10;6.15;;;2.40;;
56537;SDS011;42435;53.292;6.000;2023-04-03T07:45:36;6.60;;;2.67;;
56537;SDS011;42435;53.292;6.000;2023-04-03T07:48:04;3.75;;;1.60;;
56537;SDS011;42435;53.292;6.000;2023-04-03T07:50:33;6.53;;;2.45;;
56537;SDS011;42435;53.292;6.000;2023-04-03T07:52:58;3.67;;;1.90;;
56537;SDS011;42435;53.292;6.000;2023-04-03T07:55:24;6.35;;;2.03;;
56537;SDS011;42435;53.292;6.000;2023-04-03T07:57:50;7.55;;;2.38;;
56537;SDS011;42435;53.292;6.000;2023-04-03T08:00:16;5.20;;;2.38;;
56537;SDS011;42435;53.292;6.000;2023-04-03T08:02:43;6.03;;;1.90;;
56537;SDS011;42435;53.292;6.000;2023-04-03T08:05:09;4.63;;;1.70;;
56537;SDS011;42435;53.292;6.000;2023-04-03T08:07:36;5.35;;;2.22;;
56537;SDS011;42435;53.292;6.000;2023-04-03T08:10:02;5.70;;;2.20;;
56537;SDS011;42435;53.292;6.000;2023-04-03T08:12:28;7.50;;;2.33;;
56537;SDS011;42435;53.292;6.000;2023-04-03T08:14:54;4.50;;;1.90;;
56537;SDS011;42435;53.292;6.000;2023-04-03T08:17:29;3.67;;;2.03;;
56537;SDS011;42435;53.292;6.000;2023-04-03T08:19:56;6.28;;;2.50;;
56537;SDS011;42435;53.292;6.000;2023-04-03T08:22:21;4.35;;;1.60;;
56537;SDS011;42435;53.292;6.000;2023-04-03T08:24:47;3.13;;;1.58;;
56537;SDS011;42435;53.292;6.000;2023-04-03T08:27:12;4.60;;;2.03;;
56537;SDS011;42435;53.292;6.000;2023-04-03T08:29:39;3.95;;;1.70;;
56537;SDS011;42435;53.292;6.000;2023-04-03T08:32:05;5.18;;;1.77;;
56537;SDS011;42435;53.292;6.000;2023-04-03T08:34:31;3.05;;;1.70;;
56537;SDS011;42435;53.292;6.000;2023-04-03T08:37:00;3.67;;;1.83;;
56537;SDS011;42435;53.292;6.000;2023-04-03T08:39:26;8.05;;;2.05;;
56537;SDS011;42435;53.292;6.000;2023-04-03T08:41:52;4.38;;;1.77;;
56537;SDS011;42435;53.292;6.000;2023-04-03T08:44:35;2.15;;;1.35;;
56537;SDS011;42435;53.292;6.000;2023-04-03T08:49:44;4.18;;;1.60;;
56537;SDS011;42435;53.292;6.000;2023-04-03T08:52:20;3.42;;;1.55;;
56537;SDS011;42435;53.292;6.000;2023-04-03T08:55:02;6.57;;;1.50;;
56537;SDS011;42435;53.292;6.000;2023-04-03T08:57:35;3.78;;;1.50;;
56537;SDS011;42435;53.292;6.000;2023-04-03T09:02:49;3.30;;;1.30;;
56537;SDS011;42435;53.292;6.000;2023-04-03T09:05:19;3.78;;;1.30;;
56537;SDS011;42435;53.292;6.000;2023-04-03T09:10:45;3.58;;;1.73;;
56537;SDS011;42435;53.292;6.000;2023-04-03T09:13:13;3.97;;;2.08;;
56537;SDS011;42435;53.292;6.000;2023-04-03T09:16:04;2.65;;;1.25;;
56537;SDS011;42435;53.292;6.000;2023-04-03T09:18:46;4.00;;;1.40;;
56537;SDS011;42435;53.292;6.000;2023-04-03T09:21:38;4.55;;;1.30;;
56537;SDS011;42435;53.292;6.000;2023-04-03T09:24:07;3.50;;;1.27;;
56537;SDS011;42435;53.292;6.000;2023-04-03T09:29:18;2.00;;;1.13;;
56537;SDS011;42435;53.292;6.000;2023-04-03T09:31:47;6.38;;;1.52;;
56537;SDS011;42435;53.292;6.000;2023-04-03T09:36:55;3.33;;;1.15;;
56537;SDS011;42435;53.292;6.000;2023-04-03T09:39:24;2.50;;;1.20;;
56537;SDS011;42435;53.292;6.000;2023-04-03T09:41:58;4.55;;;2.35;;
56537;SDS011;42435;53.292;6.000;2023-04-03T09:44:38;8.25;;;1.95;;
56537;SDS011;42435;53.292;6.000;2023-04-03T09:47:17;2.80;;;1.50;;
56537;SDS011;42435;53.292;6.000;2023-04-03T09:49:48;5.45;;;1.30;;
56537;SDS011;42435;53.292;6.000;2023-04-03T09:52:19;3.70;;;1.33;;
56537;SDS011;42435;53.292;6.000;2023-04-03T09:54:49;3.95;;;1.45;;
56537;SDS011;42435;53.292;6.000;2023-04-03T09:57:14;2.15;;;1.00;;
56537;SDS011;42435;53.292;6.000;2023-04-03T09:59:45;3.33;;;1.30;;
56537;SDS011;42435;53.292;6.000;2023-04-03T10:04:56;3.38;;;1.50;;
56537;SDS011;42435;53.292;6.000;2023-04-03T10:07:33;1.83;;;1.00;;
56537;SDS011;42435;53.292;6.000;2023-04-03T10:10:24;2.22;;;1.10;;
56537;SDS011;42435;53.292;6.000;2023-04-03T10:15:50;2.42;;;1.08;;
56537;SDS011;42435;53.292;6.000;2023-04-03T10:20:54;2.13;;;1.30;;
56537;SDS011;42435;53.292;6.000;2023-04-03T10:26:21;2.33;;;0.77;;
56537;SDS011;42435;53.292;6.000;2023-04-03T10:29:22;2.20;;;1.08;;
56537;SDS011;42435;53.292;6.000;2023-04-03T10:35:01;1.30;;;0.70;;
56537;SDS011;42435;53.292;6.000;2023-04-03T10:40:35;2.00;;;0.70;;
56537;SDS011;42435;53.292;6.000;2023-04-03T10:43:31;1.70;;;0.70;;
56537;SDS011;42435;53.292;6.000;2023-04-03T10:46:11;1.42;;;0.50;;
56537;SDS011;42435;53.292;6.000;2023-04-03T10:49:07;1.45;;;0.68;;
56537;SDS011;42435;53.292;6.000;2023-04-03T10:51:50;3.90;;;0.85;;
56537;SDS011;42435;53.292;6.000;2023-04-03T10:54:25;2.95;;;0.80;;
56537;SDS011;42435;53.292;6.000;2023-04-03T10:57:17;1.30;;;0.90;;
56537;SDS011;42435;53.292;6.000;2023-04-03T10:59:45;2.20;;;0.70;;
56537;SDS011;42435;53.292;6.000;2023-04-03T11:02:18;2.00;;;0.93;;
56537;SDS011;42435;53.292;6.000;2023-04-03T11:04:56;2.75;;;1.00;;
56537;SDS011;42435;53.292;6.000;2023-04-03T11:07:36;3.63;;;1.08;;
56537;SDS011;42435;53.292;6.000;2023-04-03T11:10:21;3.50;;;0.80;;
56537;SDS011;42435;53.292;6.000;2023-04-03T11:15:48;2.00;;;0.65;;
56537;SDS011;42435;53.292;6.000;2023-04-03T11:18:19;2.75;;;0.75;;
56537;SDS011;42435;53.292;6.000;2023-04-03T11:20:57;1.98;;;0.73;;
56537;SDS011;42435;53.292;6.000;2023-04-03T11:23:30;1.83;;;0.85;;
56537;SDS011;42435;53.292;6.000;2023-04-03T11:26:09;2.20;;;0.70;;
56537;SDS011;42435;53.292;6.000;2023-04-03T11:28:37;0.93;;;0.38;;
56537;SDS011;42435;53.292;6.000;2023-04-03T11:34:09;1.48;;;0.77;;
56537;SDS011;42435;53.292;6.000;2023-04-03T11:37:01;1.00;;;0.57;;
56537;SDS011;42435;53.292;6.000;2023-04-03T11:39:36;2.65;;;0.60;;
56537;SDS011;42435;53.292;6.000;2023-04-03T11:43:05;1.77;;;0.60;;
56537;SDS011;42435;53.292;6.000;2023-04-03T11:45:16;2.45;;;0.93;;
56537;SDS011;42435;53.292;6.000;2023-04-03T11:47:54;2.65;;;0.60;;
56537;SDS011;42435;53.292;6.000;2023-04-03T11:53:09;1.70;;;0.88;;
56537;SDS011;42435;53.292;6.000;2023-04-03T11:55:53;2.78;;;0.70;;
56537;SDS011;42435;53.292;6.000;2023-04-03T11:58:31;1.08;;;0.60;;
56537;SDS011;42435;53.292;6.000;2023-04-03T12:01:02;0.95;;;0.75;;
56537;SDS011;42435;53.292;6.000;2023-04-03T12:08:53;1.55;;;0.75;;
56537;SDS011;42435;53.292;6.000;2023-04-03T12:11:24;1.88;;;0.80;;
56537;SDS011;42435;53.292;6.000;2023-04-03T12:34:35;1.38;;;0.60;;
56537;SDS011;42435;53.292;6.000;2023-04-03T12:45:38;3.50;;;1.10;;
56537;SDS011;42435;53.292;6.000;2023-04-03T12:48:15;3.40;;;0.88;;
56537;SDS011;42435;53.292;6.000;2023-04-03T12:50:43;1.42;;;1.15;;
56537;SDS011;42435;53.292;6.000;2023-04-03T12:53:24;2.78;;;0.85;;
56537;SDS011;42435;53.292;6.000;2023-04-03T12:58:55;2.47;;;0.95;;
56537;SDS011;42435;53.292;6.000;2023-04-03T13:01:39;2.35;;;0.82;;
56537;SDS011;42435;53.292;6.000;2023-04-03T13:04:04;2.40;;;0.70;;
56537;SDS011;42435;53.292;6.000;2023-04-03T13:06:32;1.65;;;1.00;;
56537;SDS011;42435;53.292;6.000;2023-04-03T13:09:22;2.00;;;0.90;;
56537;SDS011;42435;53.292;6.000;2023-04-03T13:11:52;3.63;;;1.10;;
56537;SDS011;42435;53.292;6.000;2023-04-03T13:14:23;2.22;;;0.80;;
56537;SDS011;42435;53.292;6.000;2023-04-03T13:16:54;3.92;;;1.13;;
56537;SDS011;42435;53.292;6.000;2023-04-03T13:19:26;0.95;;;0.60;;
56537;SDS011;42435;53.292;6.000;2023-04-03T13:21:59;2.10;;;0.80;;
56537;SDS011;42435;53.292;6.000;2023-04-03T13:24:27;4.78;;;1.05;;
56537;SDS011;42435;53.292;6.000;2023-04-03T13:26:55;2.28;;;0.80;;
56537;SDS011;42435;53.292;6.000;2023-04-03T13:29:23;2.88;;;0.90;;
56537;SDS011;42435;53.292;6.000;2023-04-03T13:31:53;0.80;;;0.55;;
56537;SDS011;42435;53.292;6.000;2023-04-03T13:34:20;1.95;;;0.60;;
56537;SDS011;42435;53.292;6.000;2023-04-03T13:41:48;2.80;;;0.80;;
56537;SDS011;42435;53.292;6.000;2023-04-03T13:44:31;1.00;;;0.77;;
56537;SDS011;42435;53.292;6.000;2023-04-03T13:47:20;1.60;;;0.90;;
56537;SDS011;42435;53.292;6.000;2023-04-03T13:49:58;2.22;;;1.30;;
56537;SDS011;42435;53.292;6.000;2023-04-03T13:52:29;2.67;;;0.75;;
56537;SDS011;42435;53.292;6.000;2023-04-03T13:57:49;2.28;;;0.90;;
56537;SDS011;42435;53.292;6.000;2023-04-03T14:03:13;1.98;;;1.00;;
56537;SDS011;42435;53.292;6.000;2023-04-03T14:05:59;2.53;;;0.82;;
56537;SDS011;42435;53.292;6.000;2023-04-03T14:08:26;3.25;;;1.00;;
56537;SDS011;42435;53.292;6.000;2023-04-03T14:10:52;2.58;;;1.25;;
56537;SDS011;42435;53.292;6.000;2023-04-03T14:13:19;4.10;;;1.10;;
56537;SDS011;42435;53.292;6.000;2023-04-03T14:15:46;1.73;;;1.00;;
56537;SDS011;42435;53.292;6.000;2023-04-03T14:18:14;2.92;;;1.00;;
56537;SDS011;42435;53.292;6.000;2023-04-03T14:20:43;1.45;;;0.90;;
56537;SDS011;42435;53.292;6.000;2023-04-03T14:23:12;3.03;;;1.40;;
56537;SDS011;42435;53.292;6.000;2023-04-03T14:25:38;4.53;;;1.42;;
56537;SDS011;42435;53.292;6.000;2023-04-03T14:28:18;2.33;;;1.10;;
56537;SDS011;42435;53.292;6.000;2023-04-03T14:30:46;4.40;;;1.50;;
56537;SDS011;42435;53.292;6.000;2023-04-03T14:33:13;3.03;;;1.17;;
56537;SDS011;42435;53.292;6.000;2023-04-03T14:35:41;3.22;;;1.33;;
56537;SDS011;42435;53.292;6.000;2023-04-03T14:38:21;3.40;;;1.17;;
56537;SDS011;42435;53.292;6.000;2023-04-03T14:40:49;3.05;;;2.05;;
56537;SDS011;42435;53.292;6.000;2023-04-03T14:43:15;5.60;;;1.40;;
56537;SDS011;42435;53.292;6.000;2023-04-03T14:45:42;3.85;;;1.23;;
56537;SDS011;42435;53.292;6.000;2023-04-03T14:48:10;2.03;;;1.20;;
56537;SDS011;42435;53.292;6.000;2023-04-03T14:50:41;3.65;;;1.30;;
56537;SDS011;42435;53.292;6.000;2023-04-03T14:53:07;2.63;;;0.90;;
56537;SDS011;42435;53.292;6.000;2023-04-03T14:55:35;2.33;;;1.25;;
56537;SDS011;42435;53.292;6.000;2023-04-03T14:58:02;4.15;;;1.55;;
56537;SDS011;42435;53.292;6.000;2023-04-03T15:00:27;3.53;;;1.40;;
56537;SDS011;42435;53.292;6.000;2023-04-03T15:02:53;2.25;;;1.02;;
56537;SDS011;42435;53.292;6.000;2023-04-03T15:05:19;4.10;;;1.33;;
56537;SDS011;42435;53.292;6.000;2023-04-03T15:07:46;3.28;;;1.20;;
56537;SDS011;42435;53.292;6.000;2023-04-03T15:10:25;2.17;;;1.00;;
56537;SDS011;42435;53.292;6.000;2023-04-03T15:12:53;4.40;;;1.40;;
56537;SDS011;42435;53.292;6.000;2023-04-03T15:15:19;3.13;;;1.40;;
56537;SDS011;42435;53.292;6.000;2023-04-03T15:17:46;1.40;;;0.80;;
56537;SDS011;42435;53.292;6.000;2023-04-03T15:20:19;1.95;;;0.50;;
56537;SDS011;42435;53.292;6.000;2023-04-03T15:22:46;2.70;;;0.70;;
56537;SDS011;42435;53.292;6.000;2023-04-03T15:25:12;1.50;;;0.50;;
56537;SDS011;42435;53.292;6.000;2023-04-03T15:27:38;2.22;;;0.63;;
56537;SDS011;42435;53.292;6.000;2023-04-03T15:30:05;1.00;;;0.57;;
56537;SDS011;42435;53.292;6.000;2023-04-03T15:32:33;1.75;;;0.50;;
56537;SDS011;42435;53.292;6.000;2023-04-03T15:35:00;2.72;;;0.50;;
56537;SDS011;42435;53.292;6.000;2023-04-03T15:37:26;2.55;;;0.40;;
56537;SDS011;42435;53.292;6.000;2023-04-03T15:39:52;2.33;;;1.00;;
56537;SDS011;42435;53.292;6.000;2023-04-03T15:42:17;1.85;;;0.50;;
56537;SDS011;42435;53.292;6.000;2023-04-03T15:44:43;2.05;;;0.40;;
56537;SDS011;42435;53.292;6.000;2023-04-03T15:47:08;1.45;;;0.88;;
56537;SDS011;42435;53.292;6.000;2023-04-03T15:49:34;3.40;;;1.08;;
56537;SDS011;42435;53.292;6.000;2023-04-03T15:52:00;2.97;;;1.38;;
56537;SDS011;42435;53.292;6.000;2023-04-03T15:54:26;1.85;;;0.88;;
56537;SDS011;42435;53.292;6.000;2023-04-03T15:56:54;1.50;;;0.50;;
56537;SDS011;42435;53.292;6.000;2023-04-03T15:59:20;3.00;;;0.38;;
56537;SDS011;42435;53.292;6.000;2023-04-03T16:01:46;3.95;;;1.33;;
56537;SDS011;42435;53.292;6.000;2023-04-03T16:04:12;1.23;;;0.73;;
56537;SDS011;42435;53.292;6.000;2023-04-03T16:06:38;2.20;;;0.60;;
56537;SDS011;42435;53.292;6.000;2023-04-03T16:09:04;1.27;;;0.80;;
56537;SDS011;42435;53.292;6.000;2023-04-03T16:11:31;2.05;;;1.13;;
56537;SDS011;42435;53.292;6.000;2023-04-03T16:13:56;1.17;;;0.43;;
56537;SDS011;42435;53.292;6.000;2023-04-03T16:16:23;1.55;;;0.40;;
56537;SDS011;42435;53.292;6.000;2023-04-03T16:18:52;1.75;;;0.63;;
56537;SDS011;42435;53.292;6.000;2023-04-03T16:21:21;2.80;;;1.10;;
56537;SDS011;42435;53.292;6.000;2023-04-03T16:23:48;4.05;;;0.85;;
56537;SDS011;42435;53.292;6.000;2023-04-03T16:26:14;5.40;;;0.95;;
56537;SDS011;42435;53.292;6.000;2023-04-03T16:28:40;2.63;;;0.73;;
56537;SDS011;42435;53.292;6.000;2023-04-03T16:31:06;2.13;;;0.75;;
56537;SDS011;42435;53.292;6.000;2023-04-03T16:33:33;2.10;;;0.73;;